Time;durP1;ratioP1;P1;durP2;ratioP2;P2;SDS_P1;SDS_P2;PMS_P1;PMS_P2;Temp;Humidity;BMP_temperature;BMP_pressure;BME280_temperature;BME280_humidity;BME280_pressure;Samples;Min_cycle;Max_cycle;Signal;HPM_P1;HPM_P2
2021/07/24 00:01:51;;;;;;;10.20;6.63;;;17.10;81.30;;;;;;4968523;28;20502;-73
2021/07/24 00:04:17;;;;;;;10.40;7.30;;;17.00;81.10;;;;;;4970678;28;20089;-73
2021/07/24 00:06:43;;;;;;;14.02;7.90;;;16.90;80.70;;;;;;4977731;28;20092;-73
2021/07/24 00:09:09;;;;;;;13.50;8.32;;;16.90;81.30;;;;;;4964531;28;20038;-74
2021/07/24 00:11:35;;;;;;;13.15;8.57;;;16.80;81.70;;;;;;4974643;28;22128;-73
2021/07/24 00:14:01;;;;;;;13.93;8.55;;;16.80;82.40;;;;;;4971555;28;20632;-72
2021/07/24 00:16:27;;;;;;;13.55;8.77;;;16.70;83.10;;;;;;4965581;28;20034;-74
2021/07/24 00:18:52;;;;;;;16.40;8.57;;;16.70;82.60;;;;;;4973692;28;20019;-74
2021/07/24 00:21:19;;;;;;;12.20;8.32;;;16.60;81.60;;;;;;4967174;28;20462;-73
2021/07/24 00:23:45;;;;;;;16.45;8.52;;;16.70;81.60;;;;;;4975092;28;20488;-72
2021/07/24 00:26:14;;;;;;;15.88;8.43;;;16.60;82.40;;;;;;4967312;28;20026;-73
2021/07/24 00:28:41;;;;;;;10.25;7.00;;;16.60;82.40;;;;;;4976658;28;20049;-73
2021/07/24 00:31:07;;;;;;;10.90;7.28;;;16.60;81.90;;;;;;4958862;28;20043;-75
2021/07/24 00:33:33;;;;;;;7.00;5.25;;;16.60;82.40;;;;;;4968940;28;20046;-74
2021/07/24 00:35:58;;;;;;;5.53;5.00;;;16.50;83.30;;;;;;4971853;28;20030;-73
2021/07/24 00:38:25;;;;;;;4.05;3.65;;;16.50;83.80;;;;;;4971245;28;20027;-74
2021/07/24 00:41:19;;;;;;;7.93;5.00;;;16.30;84.00;;;;;;4974891;28;20050;-73
2021/07/24 00:43:46;;;;;;;9.13;5.60;;;16.40;85.00;;;;;;4968065;28;20144;-73
2021/07/24 00:46:13;;;;;;;10.48;7.45;;;16.30;85.10;;;;;;4966775;28;20142;-73
2021/07/24 00:48:42;;;;;;;10.38;6.70;;;16.20;86.80;;;;;;4960705;28;20030;-73
2021/07/24 00:51:08;;;;;;;11.02;7.03;;;16.20;85.50;;;;;;4990970;28;20030;-73
2021/07/24 00:53:36;;;;;;;10.32;7.07;;;16.30;85.30;;;;;;4974202;28;20034;-73
2021/07/24 00:56:04;;;;;;;13.52;7.88;;;16.30;85.70;;;;;;4976461;28;20149;-73
2021/07/24 00:58:33;;;;;;;13.23;7.82;;;16.20;85.10;;;;;;4969211;28;20497;-73
2021/07/24 01:01:03;;;;;;;12.77;8.10;;;16.20;85.10;;;;;;4970682;28;20093;-73
2021/07/24 01:03:28;;;;;;;13.65;9.13;;;16.30;85.50;;;;;;4978228;28;20041;-73
2021/07/24 01:05:56;;;;;;;16.83;9.15;;;16.30;84.70;;;;;;4971625;28;20031;-73
2021/07/24 01:08:23;;;;;;;14.10;8.20;;;16.30;85.30;;;;;;4985893;28;20500;-73
2021/07/24 01:10:49;;;;;;;13.02;8.18;;;16.20;85.00;;;;;;4967932;28;20077;-72
2021/07/24 01:13:19;;;;;;;12.52;8.55;;;16.30;84.30;;;;;;4970377;28;20066;-72
2021/07/24 01:15:46;;;;;;;11.80;8.35;;;16.30;84.10;;;;;;4968185;28;20378;-73
2021/07/24 01:18:13;;;;;;;12.15;7.57;;;16.40;84.20;;;;;;4985730;28;20772;-73
2021/07/24 01:20:40;;;;;;;7.63;6.22;;;16.30;82.20;;;;;;4974081;28;20039;-73
2021/07/24 01:23:08;;;;;;;13.43;6.82;;;16.10;82.20;;;;;;4965248;28;20031;-73
2021/07/24 01:25:34;;;;;;;7.37;6.03;;;15.90;83.50;;;;;;4971123;28;20785;-72
2021/07/24 01:28:00;;;;;;;9.60;7.10;;;15.80;85.50;;;;;;4973213;28;20053;-73
2021/07/24 01:30:26;;;;;;;7.45;5.38;;;15.80;86.10;;;;;;4957889;28;20141;-72
2021/07/24 01:32:51;;;;;;;9.85;7.00;;;15.90;85.90;;;;;;4974859;28;20026;-72
2021/07/24 01:35:17;;;;;;;12.15;6.22;;;15.90;87.00;;;;;;4977822;28;20031;-72
2021/07/24 01:37:42;;;;;;;11.27;7.55;;;15.90;86.20;;;;;;4980501;28;20428;-73
2021/07/24 01:40:09;;;;;;;12.07;7.65;;;15.90;86.30;;;;;;4973643;28;20034;-73
2021/07/24 01:42:34;;;;;;;16.77;8.13;;;16.00;85.40;;;;;;4966719;28;20042;-74
2021/07/24 01:45:00;;;;;;;17.23;7.88;;;16.00;85.10;;;;;;4967799;28;20030;-74
2021/07/24 01:47:26;;;;;;;13.27;8.63;;;16.10;84.50;;;;;;4978666;28;20027;-73
2021/07/24 01:52:48;;;;;;;13.02;8.18;;;16.00;85.00;;;;;;4978035;28;20042;-74
2021/07/24 01:55:35;;;;;;;12.43;8.10;;;16.00;84.40;;;;;;4963417;28;20029;-72
2021/07/24 01:58:03;;;;;;;10.23;7.35;;;16.10;83.60;;;;;;4963915;28;20054;-73
2021/07/24 02:00:33;;;;;;;10.52;7.40;;;16.10;83.50;;;;;;4974197;28;20041;-73
2021/07/24 02:03:00;;;;;;;12.77;8.18;;;16.10;83.70;;;;;;4972828;28;20038;-73
2021/07/24 02:05:35;;;;;;;12.75;7.93;;;16.00;84.30;;;;;;4972277;28;20038;-73
2021/07/24 02:08:03;;;;;;;13.23;8.55;;;16.00;83.90;;;;;;4973160;28;21736;-73
2021/07/24 02:10:29;;;;;;;;;;;15.90;84.30;;;;;;4963425;28;20034;-73
2021/07/24 02:12:55;;;;;;;15.68;8.57;;;15.90;85.00;;;;;;4975257;28;19960;-73
2021/07/24 02:15:21;;;;;;;17.60;8.80;;;15.80;85.60;;;;;;4975916;28;20030;-73
2021/07/24 02:17:47;;;;;;;14.88;8.65;;;15.80;84.90;;;;;;4968158;28;20030;-72
2021/07/24 02:20:14;;;;;;;14.88;9.52;;;15.70;86.10;;;;;;4971066;28;20049;-72
2021/07/24 02:22:39;;;;;;;13.13;8.32;;;15.70;86.40;;;;;;4976236;28;20497;-73
2021/07/24 02:25:05;;;;;;;11.85;8.35;;;15.60;85.50;;;;;;4980814;28;20038;-73
2021/07/24 02:27:32;;;;;;;15.93;8.93;;;15.60;85.80;;;;;;4967486;28;20066;-73
2021/07/24 02:29:58;;;;;;;17.73;9.93;;;15.50;86.30;;;;;;4971859;28;20034;-73
2021/07/24 02:32:24;;;;;;;13.65;8.70;;;15.50;86.90;;;;;;4965857;28;20046;-73
2021/07/24 02:34:50;;;;;;;15.60;8.95;;;15.30;87.10;;;;;;4969323;28;20030;-73
2021/07/24 02:37:15;;;;;;;13.50;8.95;;;15.40;87.50;;;;;;4980172;28;20034;-73
2021/07/24 02:39:41;;;;;;;11.95;8.77;;;15.40;87.80;;;;;;4980112;28;20035;-73
2021/07/24 02:42:07;;;;;;;13.63;7.88;;;15.50;86.60;;;;;;4974136;28;20038;-73
2021/07/24 02:44:32;;;;;;;13.27;8.73;;;15.60;86.90;;;;;;4973036;28;20041;-73
2021/07/24 02:46:58;;;;;;;14.68;8.55;;;15.50;87.90;;;;;;4985126;28;20034;-73
2021/07/24 02:49:24;;;;;;;11.30;7.22;;;15.50;86.60;;;;;;4977205;28;20493;-73
2021/07/24 02:51:49;;;;;;;8.10;6.40;;;15.40;85.30;;;;;;4967813;28;20033;-74
2021/07/24 02:54:15;;;;;;;10.38;7.15;;;15.30;85.10;;;;;;4992278;28;20038;-74
2021/07/24 02:56:41;;;;;;;14.43;6.72;;;15.30;85.10;;;;;;4964920;28;20179;-74
2021/07/24 02:59:06;;;;;;;10.00;6.65;;;15.30;84.40;;;;;;4968353;28;20057;-74
2021/07/24 03:01:32;;;;;;;9.55;5.80;;;15.20;84.30;;;;;;4970977;28;20035;-73
2021/07/24 03:03:58;;;;;;;4.88;4.25;;;15.30;84.20;;;;;;4978913;28;20113;-72
2021/07/24 03:06:23;;;;;;;3.72;3.25;;;15.20;85.00;;;;;;4979644;28;20109;-72
2021/07/24 03:08:49;;;;;;;4.72;4.22;;;15.00;85.60;;;;;;4984684;28;20030;-72
2021/07/24 03:11:15;;;;;;;5.88;4.25;;;15.00;86.40;;;;;;4975000;28;20089;-72
2021/07/24 03:13:41;;;;;;;8.88;6.00;;;15.00;87.60;;;;;;4980242;28;20500;-72
2021/07/24 03:16:06;;;;;;;13.20;7.60;;;15.00;87.50;;;;;;4980516;28;20433;-72
2021/07/24 03:18:33;;;;;;;12.07;6.63;;;15.00;87.30;;;;;;4976585;28;20037;-72
2021/07/24 03:20:58;;;;;;;9.40;6.50;;;15.00;89.10;;;;;;4979871;28;20090;-73
2021/07/24 03:23:24;;;;;;;7.28;5.85;;;15.00;88.70;;;;;;4967164;28;20034;-73
2021/07/24 03:25:50;;;;;;;6.50;4.90;;;15.10;87.70;;;;;;4971096;28;20108;-73
2021/07/24 03:28:15;;;;;;;7.07;4.88;;;15.10;87.70;;;;;;4975431;28;20034;-74
2021/07/24 03:30:41;;;;;;;11.18;5.75;;;15.00;87.50;;;;;;4977031;28;20034;-73
2021/07/24 03:33:06;;;;;;;10.15;7.20;;;15.00;88.10;;;;;;4975925;28;20026;-72
2021/07/24 03:35:33;;;;;;;9.95;6.82;;;15.00;89.20;;;;;;4963336;28;20046;-72
2021/07/24 03:38:05;;;;;;;11.27;7.38;;;15.00;88.10;;;;;;4972652;28;20381;-72
2021/07/24 03:40:31;;;;;;;12.88;7.90;;;14.90;89.00;;;;;;4977605;28;20033;-73
2021/07/24 03:42:57;;;;;;;12.55;7.82;;;14.90;89.60;;;;;;4962285;28;20517;-73
2021/07/24 03:45:23;;;;;;;11.48;7.00;;;14.90;90.00;;;;;;4972171;28;20029;-73
2021/07/24 03:47:48;;;;;;;10.75;6.70;;;14.80;89.60;;;;;;4972007;28;20037;-72
2021/07/24 03:50:14;;;;;;;12.85;7.75;;;14.90;88.00;;;;;;4978292;28;20540;-73
2021/07/24 03:52:39;;;;;;;10.95;7.63;;;14.90;89.40;;;;;;4979835;28;20081;-73
2021/07/24 03:55:05;;;;;;;11.50;7.38;;;14.90;89.40;;;;;;4974157;28;20034;-73
2021/07/24 03:57:31;;;;;;;15.63;8.88;;;14.80;90.00;;;;;;4973539;28;20022;-73
2021/07/24 04:00:00;;;;;;;12.00;8.07;;;14.80;90.10;;;;;;4967752;28;20115;-72
2021/07/24 04:02:27;;;;;;;13.32;8.15;;;14.80;90.10;;;;;;4966818;28;20046;-72
2021/07/24 04:04:53;;;;;;;10.10;6.68;;;15.00;89.40;;;;;;4969583;28;20139;-72
2021/07/24 04:07:22;;;;;;;12.55;7.10;;;14.90;85.50;;;;;;4974332;28;20022;-72
2021/07/24 04:09:48;;;;;;;13.52;7.93;;;14.80;87.50;;;;;;4971778;28;20065;-72
2021/07/24 04:12:14;;;;;;;13.18;7.82;;;14.90;88.30;;;;;;4974161;28;20037;-71
2021/07/24 04:14:40;;;;;;;11.95;6.75;;;14.90;87.70;;;;;;4970635;28;20042;-72
2021/07/24 04:17:06;;;;;;;13.02;7.00;;;14.90;87.00;;;;;;4983531;28;20022;-73
2021/07/24 04:19:33;;;;;;;15.60;8.05;;;14.90;87.90;;;;;;4968831;28;20057;-73
2021/07/24 04:21:59;;;;;;;13.70;7.72;;;15.00;88.00;;;;;;4976763;28;20536;-74
2021/07/24 04:24:24;;;;;;;14.77;7.45;;;15.20;88.40;;;;;;4968002;28;20026;-75
2021/07/24 04:26:50;;;;;;;13.45;7.97;;;15.20;87.90;;;;;;4975482;28;20029;-73
2021/07/24 04:29:16;;;;;;;13.90;8.38;;;15.30;87.90;;;;;;4970957;28;20054;-73
2021/07/24 04:31:41;;;;;;;13.98;8.10;;;15.40;88.00;;;;;;4973828;28;20045;-73
2021/07/24 04:34:07;;;;;;;16.88;8.52;;;15.40;88.00;;;;;;4979324;28;20094;-73
2021/07/24 04:36:33;;;;;;;13.40;8.27;;;15.40;88.40;;;;;;4968448;28;20089;-74
2021/07/24 04:38:58;;;;;;;12.32;8.27;;;15.40;88.00;;;;;;4974880;28;20049;-73
2021/07/24 04:41:24;;;;;;;14.02;9.00;;;15.60;88.50;;;;;;4975173;28;20501;-73
2021/07/24 04:43:50;;;;;;;13.98;9.38;;;15.60;88.70;;;;;;4959933;28;20614;-73
2021/07/24 04:46:16;;;;;;;16.35;10.02;;;15.70;89.60;;;;;;4970193;28;20031;-74
2021/07/24 04:48:42;;;;;;;14.23;9.55;;;15.70;89.60;;;;;;4958265;28;20034;-74
2021/07/24 04:51:08;;;;;;;16.25;9.82;;;15.80;89.90;;;;;;4975763;28;20081;-73
2021/07/24 04:53:34;;;;;;;13.90;9.07;;;15.90;89.60;;;;;;4962217;28;20030;-74
2021/07/24 04:56:02;;;;;;;17.45;9.55;;;16.00;90.00;;;;;;4967526;28;20429;-73
2021/07/24 04:58:30;;;;;;;19.83;10.13;;;16.20;90.00;;;;;;4969239;28;20026;-74
2021/07/24 05:00:56;;;;;;;15.35;9.65;;;16.20;90.10;;;;;;4966641;28;20481;-74
2021/07/24 05:03:22;;;;;;;14.43;10.60;;;16.30;89.80;;;;;;4969572;28;20033;-74
2021/07/24 05:05:49;;;;;;;19.38;10.95;;;16.40;89.40;;;;;;4966061;28;20389;-73
2021/07/24 05:08:15;;;;;;;16.10;10.18;;;16.40;89.60;;;;;;4984080;28;20144;-73
2021/07/24 05:10:41;;;;;;;16.35;9.55;;;16.50;89.30;;;;;;4964977;28;20050;-74
2021/07/24 05:13:07;;;;;;;15.40;10.52;;;16.60;89.30;;;;;;4967498;28;20098;-74
2021/07/24 05:15:33;;;;;;;21.13;10.57;;;16.70;89.60;;;;;;4971620;28;20025;-74
2021/07/24 05:17:58;;;;;;;18.58;11.50;;;16.80;90.10;;;;;;4977143;28;20038;-74
2021/07/24 05:20:25;;;;;;;20.27;10.52;;;16.80;89.40;;;;;;4977026;28;20027;-73
2021/07/24 05:22:51;;;;;;;20.70;10.57;;;17.00;90.00;;;;;;4978246;28;20049;-74
2021/07/24 05:25:17;;;;;;;16.75;10.18;;;17.00;90.30;;;;;;4976626;28;20045;-73
2021/07/24 05:27:43;;;;;;;17.23;10.40;;;17.10;90.00;;;;;;4968040;28;20030;-73
2021/07/24 05:30:09;;;;;;;18.98;11.00;;;17.10;89.50;;;;;;4964168;28;20058;-73
2021/07/24 05:32:35;;;;;;;16.80;10.40;;;17.30;88.50;;;;;;4966268;28;20042;-73
2021/07/24 05:35:01;;;;;;;16.35;10.20;;;17.40;88.80;;;;;;4959576;28;20034;-73
2021/07/24 05:37:27;;;;;;;18.52;10.32;;;17.60;88.70;;;;;;4973245;28;20105;-74
2021/07/24 05:39:53;;;;;;;14.60;9.98;;;17.70;88.30;;;;;;4961023;28;20141;-74
2021/07/24 05:42:18;;;;;;;18.25;9.88;;;17.80;88.30;;;;;;4968438;28;20088;-72
2021/07/24 05:44:44;;;;;;;16.88;9.77;;;17.90;88.00;;;;;;4962829;28;20041;-73
2021/07/24 05:47:10;;;;;;;15.07;9.30;;;18.10;87.30;;;;;;4963214;28;20038;-74
2021/07/24 05:49:37;;;;;;;17.73;10.02;;;18.20;85.30;;;;;;4971444;28;20061;-74
2021/07/24 05:52:08;;;;;;;15.13;9.63;;;18.30;84.60;;;;;;4974552;28;20362;-74
2021/07/24 05:54:37;;;;;;;15.82;10.07;;;18.30;83.70;;;;;;4982951;28;20033;-73
2021/07/24 05:57:05;;;;;;;15.70;9.25;;;18.40;81.40;;;;;;4975841;28;20029;-74
2021/07/24 05:59:31;;;;;;;16.42;10.07;;;18.30;82.10;;;;;;4967490;28;20068;-75
2021/07/24 06:01:57;;;;;;;18.60;10.00;;;18.30;82.10;;;;;;4968319;28;20027;-73
2021/07/24 06:04:23;;;;;;;15.63;9.27;;;18.30;83.30;;;;;;4976230;28;20034;-72
2021/07/24 06:06:48;;;;;;;17.67;10.05;;;18.30;83.30;;;;;;4970280;28;20058;-74
2021/07/24 06:09:14;;;;;;;14.85;9.05;;;18.30;83.50;;;;;;4961940;28;20482;-73
2021/07/24 06:11:40;;;;;;;14.98;9.40;;;18.40;83.50;;;;;;4967786;28;20034;-73
2021/07/24 06:14:05;;;;;;;17.95;9.88;;;18.50;83.40;;;;;;4971808;28;20031;-75
2021/07/24 06:16:31;;;;;;;16.75;10.15;;;18.60;80.40;;;;;;4959919;28;21176;-75
2021/07/24 06:19:00;;;;;;;18.23;9.95;;;18.60;80.60;;;;;;4969970;28;20664;-76
2021/07/24 06:21:26;;;;;;;16.80;9.45;;;18.70;82.40;;;;;;4970385;28;20038;-75
2021/07/24 06:23:51;;;;;;;15.80;9.82;;;18.80;81.70;;;;;;4972520;28;20038;-76
2021/07/24 06:26:17;;;;;;;15.23;8.90;;;19.00;81.40;;;;;;4971497;28;20027;-75
2021/07/24 06:28:42;;;;;;;17.70;10.23;;;19.10;81.30;;;;;;4971536;28;20026;-75
2021/07/24 06:31:08;;;;;;;17.65;10.25;;;19.20;81.10;;;;;;4966693;28;20056;-75
2021/07/24 06:33:34;;;;;;;17.10;9.82;;;19.10;81.10;;;;;;4970699;28;20026;-74
2021/07/24 06:36:00;;;;;;;17.35;10.25;;;19.20;81.20;;;;;;4973274;28;20043;-75
2021/07/24 06:38:26;;;;;;;15.05;9.75;;;19.20;80.60;;;;;;4982632;28;20391;-75
2021/07/24 06:40:53;;;;;;;16.25;9.52;;;19.30;80.80;;;;;;4972639;28;20158;-75
2021/07/24 06:43:19;;;;;;;15.95;9.93;;;19.30;80.50;;;;;;4978898;28;20557;-76
2021/07/24 06:45:47;;;;;;;15.93;9.52;;;19.30;80.50;;;;;;4975122;28;20102;-73
2021/07/24 06:48:13;;;;;;;17.50;10.10;;;19.30;79.90;;;;;;4981481;28;20035;-72
2021/07/24 06:50:39;;;;;;;15.95;9.65;;;19.40;79.50;;;;;;4978356;28;20027;-75
2021/07/24 06:53:05;;;;;;;14.73;9.40;;;19.40;78.90;;;;;;4982790;28;20037;-74
2021/07/24 06:55:31;;;;;;;16.05;9.32;;;19.40;78.10;;;;;;4981539;28;20030;-75
2021/07/24 06:58:01;;;;;;;14.98;8.48;;;19.50;78.80;;;;;;4977435;28;20040;-72
2021/07/24 07:00:31;;;;;;;19.33;9.07;;;19.50;79.30;;;;;;4969240;28;20039;-76
2021/07/24 07:03:02;;;;;;;14.77;8.90;;;19.50;79.50;;;;;;4976366;28;20034;-74
2021/07/24 07:05:28;;;;;;;15.90;9.27;;;19.60;78.80;;;;;;4970530;28;20084;-74
2021/07/24 07:07:54;;;;;;;13.32;8.68;;;19.60;78.10;;;;;;4975026;28;20026;-74
2021/07/24 07:10:23;;;;;;;15.40;8.60;;;19.70;78.50;;;;;;4974319;28;21390;-75
2021/07/24 07:12:49;;;;;;;16.95;9.00;;;19.70;78.60;;;;;;4971930;28;20034;-73
2021/07/24 07:15:15;;;;;;;14.18;8.38;;;19.70;78.20;;;;;;4974336;28;20041;-77
2021/07/24 07:17:41;;;;;;;15.77;9.15;;;19.70;78.00;;;;;;4971552;28;20035;-75
2021/07/24 07:20:08;;;;;;;16.70;8.88;;;19.70;77.90;;;;;;4976070;28;20560;-74
2021/07/24 07:22:34;;;;;;;13.95;8.45;;;19.70;78.10;;;;;;4973530;28;20941;-74
2021/07/24 07:25:00;;;;;;;13.73;9.02;;;19.70;78.20;;;;;;4981049;28;20030;-74
2021/07/24 07:27:26;;;;;;;16.55;8.82;;;19.70;78.20;;;;;;4973988;28;20034;-75
2021/07/24 07:29:52;;;;;;;15.65;9.82;;;19.60;78.10;;;;;;4976069;28;20515;-74
2021/07/24 07:32:17;;;;;;;15.63;9.77;;;19.50;78.60;;;;;;4960733;28;20031;-74
2021/07/24 07:34:44;;;;;;;17.40;9.52;;;19.50;79.60;;;;;;4967408;28;20374;-75
2021/07/24 07:37:10;;;;;;;15.30;9.27;;;19.50;79.30;;;;;;4963995;28;20031;-75
2021/07/24 07:39:36;;;;;;;17.50;9.45;;;19.50;79.20;;;;;;4958847;28;20030;-77
2021/07/24 07:42:03;;;;;;;23.65;10.95;;;19.50;79.80;;;;;;4965334;28;20042;-76
2021/07/24 07:44:29;;;;;;;18.88;10.20;;;19.50;80.00;;;;;;4956009;28;20023;-76
2021/07/24 07:46:56;;;;;;;17.70;9.48;;;19.50;80.00;;;;;;4953785;28;20093;-76
2021/07/24 07:49:22;;;;;;;15.87;10.13;;;19.60;79.70;;;;;;4949462;28;20025;-77
2021/07/24 07:51:51;;;;;;;18.13;10.18;;;19.60;81.80;;;;;;4960075;28;20290;-75
2021/07/24 07:54:17;;;;;;;16.02;9.88;;;19.60;81.20;;;;;;4961657;28;21484;-76
2021/07/24 07:56:43;;;;;;;16.05;9.68;;;19.60;81.20;;;;;;4973496;28;20038;-77
2021/07/24 07:59:08;;;;;;;16.77;9.55;;;19.70;81.30;;;;;;4964370;28;20026;-75
2021/07/24 08:01:35;;;;;;;14.63;9.30;;;19.70;80.40;;;;;;4973517;28;20042;-76
2021/07/24 08:04:01;;;;;;;16.85;9.68;;;19.70;80.30;;;;;;4961903;28;20133;-76
2021/07/24 08:06:27;;;;;;;18.35;9.68;;;19.70;80.00;;;;;;4956923;28;20031;-76
2021/07/24 08:08:53;;;;;;;17.35;10.48;;;19.80;79.60;;;;;;4966529;28;20031;-75
2021/07/24 08:11:19;;;;;;;16.63;9.50;;;19.80;80.20;;;;;;4957650;28;20046;-74
2021/07/24 08:13:45;;;;;;;18.85;9.65;;;19.90;80.10;;;;;;4982800;28;20035;-75
2021/07/24 08:16:17;;;;;;;19.73;9.88;;;20.00;80.60;;;;;;4963368;28;20377;-75
2021/07/24 08:18:44;;;;;;;14.88;9.10;;;20.00;79.50;;;;;;4960658;28;21435;-75
2021/07/24 08:21:10;;;;;;;16.95;9.98;;;20.00;80.00;;;;;;4958617;28;20653;-75
2021/07/24 08:23:36;;;;;;;15.23;10.00;;;20.10;79.30;;;;;;4956363;28;20034;-76
2021/07/24 08:26:01;;;;;;;16.90;9.52;;;20.10;79.20;;;;;;4960815;28;20517;-75
2021/07/24 08:28:29;;;;;;;15.48;9.77;;;20.20;79.00;;;;;;4961418;28;20038;-76
2021/07/24 08:30:55;;;;;;;16.90;10.20;;;20.20;78.60;;;;;;4957719;28;20042;-74
2021/07/24 08:33:21;;;;;;;16.02;10.35;;;20.20;79.60;;;;;;4957630;28;20042;-75
2021/07/24 08:35:47;;;;;;;18.65;10.30;;;20.30;80.80;;;;;;4960997;28;20030;-75
2021/07/24 08:38:13;;;;;;;16.65;10.05;;;20.30;80.50;;;;;;4961452;28;20042;-75
2021/07/24 08:40:39;;;;;;;14.90;9.45;;;20.20;79.40;;;;;;4964036;28;20022;-75
2021/07/24 08:43:15;;;;;;;18.10;10.13;;;20.30;78.80;;;;;;4962032;28;20536;-75
2021/07/24 08:45:41;;;;;;;14.55;8.88;;;20.20;79.10;;;;;;4960269;28;21575;-74
2021/07/24 08:48:07;;;;;;;14.85;9.13;;;20.30;80.00;;;;;;4960781;28;20030;-75
2021/07/24 08:50:34;;;;;;;16.33;9.43;;;20.30;79.10;;;;;;4959720;28;20035;-76
2021/07/24 08:53:07;;;;;;;16.48;9.32;;;20.30;79.30;;;;;;4957837;28;20038;-76
2021/07/24 08:55:34;;;;;;;17.40;9.73;;;20.30;79.60;;;;;;4956226;28;20050;-75
2021/07/24 08:58:01;;;;;;;15.57;9.73;;;20.40;79.80;;;;;;4961219;28;20162;-75
2021/07/24 09:00:30;;;;;;;14.77;9.48;;;20.40;79.80;;;;;;4960983;28;20042;-74
2021/07/24 09:03:01;;;;;;;19.65;10.27;;;20.50;79.70;;;;;;4957701;28;20035;-76
2021/07/24 09:05:50;;;;;;;14.73;9.02;;;20.50;79.80;;;;;;4964121;28;20057;-76
2021/07/24 09:08:17;;;;;;;16.83;10.38;;;20.60;80.10;;;;;;4961466;28;20570;-75
2021/07/24 09:10:46;;;;;;;19.23;10.87;;;20.70;80.50;;;;;;4987842;28;20035;-77
2021/07/24 09:13:11;;;;;;;20.15;10.30;;;20.80;80.50;;;;;;4961373;28;20023;-76
2021/07/24 09:15:37;;;;;;;16.23;10.02;;;20.90;78.70;;;;;;4958320;28;20022;-75
2021/07/24 09:18:03;;;;;;;19.00;10.32;;;21.00;78.80;;;;;;4957825;28;20066;-75
2021/07/24 09:20:29;;;;;;;16.70;9.05;;;21.10;77.80;;;;;;4958158;28;20039;-74
2021/07/24 09:22:55;;;;;;;18.67;9.23;;;21.20;77.20;;;;;;4960247;28;20664;-77
2021/07/24 09:25:22;;;;;;;15.27;8.88;;;21.30;75.30;;;;;;4959016;28;20145;-75
2021/07/24 09:27:50;;;;;;;14.25;9.20;;;21.30;74.70;;;;;;4965738;28;20030;-75
2021/07/24 09:30:24;;;;;;;14.75;9.32;;;21.40;74.60;;;;;;4952743;28;20035;-75
2021/07/24 09:33:08;;;;;;;14.77;8.23;;;21.50;75.00;;;;;;4949465;28;20031;-76
2021/07/24 09:35:38;;;;;;;16.13;9.07;;;21.70;75.00;;;;;;4952958;28;20027;-76
2021/07/24 09:38:05;;;;;;;16.60;9.13;;;21.70;74.50;;;;;;4959069;28;20226;-77
2021/07/24 09:40:33;;;;;;;18.35;8.70;;;21.80;73.50;;;;;;4956615;28;20042;-76
2021/07/24 09:43:00;;;;;;;16.45;9.70;;;21.80;73.50;;;;;;4959661;28;20031;-76
2021/07/24 09:45:25;;;;;;;16.10;9.57;;;21.80;73.30;;;;;;4960839;28;20567;-76
2021/07/24 09:47:53;;;;;;;17.45;9.82;;;21.80;72.50;;;;;;4956833;28;20110;-77
2021/07/24 09:50:19;;;;;;;19.98;10.20;;;21.80;72.80;;;;;;4959993;28;20034;-75
2021/07/24 09:52:46;;;;;;;19.23;9.95;;;21.80;72.10;;;;;;4962131;28;20030;-74
2021/07/24 09:55:16;;;;;;;18.58;10.10;;;21.80;72.00;;;;;;4961432;28;20023;-76
2021/07/24 09:57:44;;;;;;;14.40;9.10;;;21.70;72.80;;;;;;4978257;28;20062;-75
2021/07/24 10:00:39;;;;;;;19.42;9.68;;;21.80;73.20;;;;;;4960522;28;20034;-75
2021/07/24 10:03:07;;;;;;;16.77;9.07;;;21.80;73.00;;;;;;4954349;28;20041;-74
2021/07/24 10:05:41;;;;;;;15.27;9.32;;;21.80;73.20;;;;;;4980555;28;20035;-77
2021/07/24 10:08:10;;;;;;;15.80;9.35;;;21.80;73.70;;;;;;4962458;28;20525;-75
2021/07/24 10:10:42;;;;;;;18.17;9.80;;;21.80;73.50;;;;;;4962519;28;20039;-76
2021/07/24 10:13:15;;;;;;;15.90;9.52;;;21.70;73.60;;;;;;4961808;28;20468;-76
2021/07/24 10:15:43;;;;;;;14.30;9.25;;;21.70;73.60;;;;;;4970249;28;20058;-75
2021/07/24 10:18:18;;;;;;;17.88;9.85;;;21.70;73.60;;;;;;4985546;28;20047;-75
2021/07/24 10:20:47;;;;;;;19.63;9.43;;;21.80;73.50;;;;;;4963921;28;20053;-75
2021/07/24 10:23:15;;;;;;;17.85;9.82;;;21.80;73.70;;;;;;4961165;28;20034;-74
2021/07/24 10:26:15;;;;;;;13.93;8.60;;;21.80;73.50;;;;;;4964832;28;20073;-74
2021/07/24 10:28:54;;;;;;;15.43;9.40;;;21.80;73.70;;;;;;4966069;28;20035;-76
2021/07/24 10:31:29;;;;;;;18.35;9.05;;;21.90;73.50;;;;;;4966598;28;21102;-76
2021/07/24 10:34:07;;;;;;;18.48;9.48;;;22.00;73.50;;;;;;4967786;28;20086;-76
2021/07/24 10:36:41;;;;;;;15.63;10.00;;;22.00;73.70;;;;;;4966957;28;20057;-75
2021/07/24 10:39:10;;;;;;;18.75;10.35;;;22.10;73.80;;;;;;4969676;28;20041;-76
2021/07/24 10:41:39;;;;;;;16.75;9.98;;;22.10;73.60;;;;;;4971709;28;20022;-77
2021/07/24 10:44:31;;;;;;;16.92;10.15;;;22.10;73.80;;;;;;4971191;28;20030;-75
2021/07/24 10:47:00;;;;;;;15.63;9.43;;;22.10;72.70;;;;;;4966140;28;20029;-75
2021/07/24 10:49:35;;;;;;;18.00;10.05;;;22.10;72.20;;;;;;4968702;28;20031;-75
2021/07/24 10:52:01;;;;;;;20.67;10.20;;;22.00;71.10;;;;;;4968479;28;20030;-75
2021/07/24 10:54:28;;;;;;;16.63;10.48;;;22.00;73.00;;;;;;4971655;28;20026;-75
2021/07/24 10:56:54;;;;;;;15.37;9.87;;;22.00;72.00;;;;;;4973669;28;20700;-76
2021/07/24 10:59:24;;;;;;;17.80;9.95;;;22.00;73.10;;;;;;4967119;28;20453;-75
2021/07/24 11:01:55;;;;;;;18.83;10.48;;;22.00;71.40;;;;;;4961317;28;20436;-75
2021/07/24 11:05:17;;;;;;;17.15;9.95;;;22.10;72.50;;;;;;4965922;28;20039;-77
2021/07/24 11:07:46;;;;;;;15.10;9.32;;;22.10;72.10;;;;;;4968600;28;20079;-74
2021/07/24 11:13:01;;;;;;;17.27;10.35;;;22.20;72.10;;;;;;5476381;23;20081;-75
2021/07/24 11:15:41;;;;;;;19.98;10.32;;;22.30;71.80;;;;;;4965349;28;20042;-75
2021/07/24 11:18:23;;;;;;;17.27;10.68;;;22.30;71.40;;;;;;4967158;28;20031;-75
2021/07/24 11:20:50;;;;;;;17.75;10.52;;;22.40;70.10;;;;;;4980859;28;20098;-73
2021/07/24 11:23:16;;;;;;;17.23;10.43;;;22.50;71.10;;;;;;4962688;28;20068;-74
2021/07/24 11:25:43;;;;;;;20.23;10.98;;;22.50;69.60;;;;;;4964585;28;20466;-75
2021/07/24 11:28:15;;;;;;;20.25;11.18;;;22.50;69.70;;;;;;4966307;28;20485;-76
2021/07/24 11:30:41;;;;;;;16.45;10.52;;;22.50;69.60;;;;;;4966570;28;20057;-74
2021/07/24 11:33:10;;;;;;;18.38;10.50;;;22.60;72.60;;;;;;4970333;28;20030;-72
2021/07/24 11:35:39;;;;;;;17.08;10.10;;;22.80;72.30;;;;;;4969014;28;20794;-72
2021/07/24 11:38:22;;;;;;;19.15;11.00;;;22.80;69.80;;;;;;4963657;28;20031;-72
2021/07/24 11:41:09;;;;;;;20.30;10.13;;;22.80;69.70;;;;;;4962823;28;20034;-72
2021/07/24 11:43:37;;;;;;;17.23;10.40;;;22.90;69.00;;;;;;4963976;28;20053;-73
2021/07/24 11:46:05;;;;;;;20.70;10.88;;;23.00;69.20;;;;;;4965778;28;20111;-74
2021/07/24 11:48:42;;;;;;;17.17;9.52;;;23.00;69.40;;;;;;4961011;28;20512;-71
2021/07/24 11:51:13;;;;;;;16.20;10.13;;;23.00;69.20;;;;;;4965924;28;20039;-70
2021/07/24 11:53:40;;;;;;;18.58;10.18;;;23.10;69.70;;;;;;4970506;28;20122;-73
2021/07/24 11:56:11;;;;;;;17.90;10.70;;;23.20;68.90;;;;;;4967996;28;20041;-73
2021/07/24 11:58:41;;;;;;;16.98;10.32;;;23.20;68.70;;;;;;4967091;28;20855;-71
2021/07/24 12:01:22;;;;;;;17.27;11.00;;;23.20;69.60;;;;;;4963701;28;20022;-73
2021/07/24 12:04:02;;;;;;;17.73;10.63;;;23.20;67.70;;;;;;4964433;28;20035;-72
2021/07/24 12:06:30;;;;;;;18.67;10.63;;;23.20;69.00;;;;;;4965747;28;20022;-74
2021/07/24 12:09:00;;;;;;;14.50;9.20;;;23.20;67.70;;;;;;4968795;28;20034;-72
2021/07/24 12:11:28;;;;;;;16.70;9.65;;;23.20;68.00;;;;;;4970864;28;20047;-72
2021/07/24 12:14:12;;;;;;;16.75;9.68;;;23.30;66.70;;;;;;4964619;28;20041;-70
2021/07/24 12:16:40;;;;;;;20.55;9.80;;;23.30;68.00;;;;;;4964091;28;20130;-71
2021/07/24 12:19:18;;;;;;;17.42;8.95;;;23.30;68.10;;;;;;4965290;28;20128;-72
2021/07/24 12:21:47;;;;;;;18.08;10.48;;;23.40;68.80;;;;;;4968283;28;20031;-73
2021/07/24 12:24:24;;;;;;;18.27;10.25;;;23.50;68.50;;;;;;4966271;28;20061;-75
2021/07/24 12:27:03;;;;;;;18.80;10.37;;;23.50;67.60;;;;;;4968327;28;20069;-73
2021/07/24 12:29:29;;;;;;;13.90;9.85;;;23.50;67.90;;;;;;4968303;28;20023;-74
2021/07/24 12:31:55;;;;;;;14.68;9.10;;;23.50;69.10;;;;;;4953931;28;20553;-72
2021/07/24 12:34:24;;;;;;;14.45;9.43;;;23.60;66.60;;;;;;4944991;28;20118;-74
2021/07/24 12:36:58;;;;;;;16.05;9.30;;;23.50;67.20;;;;;;4947184;28;20110;-73
2021/07/24 12:39:25;;;;;;;22.25;10.48;;;23.50;66.90;;;;;;4942361;28;20035;-73
2021/07/24 12:42:07;;;;;;;15.73;10.30;;;23.50;68.50;;;;;;4946391;28;20028;-73
2021/07/24 12:44:52;;;;;;;16.48;10.05;;;23.60;67.90;;;;;;4938951;28;20775;-73
2021/07/24 12:47:19;;;;;;;16.63;9.75;;;23.70;68.70;;;;;;4939418;28;20034;-73